Cleveland, Ohio
Current Conditions -  °F | °C
As of 11:53 PM on Thursday 27 Nov 2014 (Local Time) from KBKL Reporting Station
Overcast Overcast  
Wind Chill: 20°   Ceiling: 3300
Heat Index: 31°   Visibility: 10mi
Dew Point: 20°   Wind: 16mph
Humidity: 64%   Direction: 320°NW
Pressure: 30.26"   Gusts: NA
Location:  41.5°N, 81.69°W
Report Text: KBKL 280453Z 32014KT 10SM BKN033 OVC039 M01/M07 A3026 RMK AO2 SLP253 T10061067 400171006
Loading
Personal Weather Stations






























Interactive Weather Map New forecast layout! Learn more

10-Day Weather Forecast

Advertisements
Track Severe Weather on mobile